sensor_id;sensor_type;location;lat;lon;timestamp;P1;durP1;ratioP1;P2;durP2;ratioP2
69323;SDS011;56470;47.350;8.718;2024-03-08T00:01:28;23.70;;;10.07;;
69323;SDS011;56470;47.350;8.718;2024-03-08T00:03:53;21.10;;;8.82;;
69323;SDS011;56470;47.350;8.718;2024-03-08T00:06:18;23.47;;;9.67;;
69323;SDS011;56470;47.350;8.718;2024-03-08T00:08:44;24.57;;;9.70;;
69323;SDS011;56470;47.350;8.718;2024-03-08T00:11:09;23.83;;;9.87;;
69323;SDS011;56470;47.350;8.718;2024-03-08T00:13:34;22.33;;;9.93;;
69323;SDS011;56470;47.350;8.718;2024-03-08T00:15:59;25.43;;;9.73;;
69323;SDS011;56470;47.350;8.718;2024-03-08T00:18:25;19.63;;;9.07;;
69323;SDS011;56470;47.350;8.718;2024-03-08T00:20:50;21.67;;;9.38;;
69323;SDS011;56470;47.350;8.718;2024-03-08T00:23:16;20.53;;;9.40;;
69323;SDS011;56470;47.350;8.718;2024-03-08T00:25:41;20.80;;;8.93;;
69323;SDS011;56470;47.350;8.718;2024-03-08T00:28:06;22.67;;;9.67;;
69323;SDS011;56470;47.350;8.718;2024-03-08T00:30:32;23.07;;;9.60;;
69323;SDS011;56470;47.350;8.718;2024-03-08T00:32:57;23.67;;;9.63;;
69323;SDS011;56470;47.350;8.718;2024-03-08T00:35:22;20.70;;;9.97;;
69323;SDS011;56470;47.350;8.718;2024-03-08T00:37:48;21.03;;;8.30;;
69323;SDS011;56470;47.350;8.718;2024-03-08T00:40:13;24.33;;;10.30;;
69323;SDS011;56470;47.350;8.718;2024-03-08T00:42:39;20.48;;;9.25;;
69323;SDS011;56470;47.350;8.718;2024-03-08T00:45:06;23.83;;;10.15;;
69323;SDS011;56470;47.350;8.718;2024-03-08T00:47:31;23.73;;;9.10;;
69323;SDS011;56470;47.350;8.718;2024-03-08T00:49:57;20.93;;;8.57;;
69323;SDS011;56470;47.350;8.718;2024-03-08T00:52:22;20.90;;;9.52;;
69323;SDS011;56470;47.350;8.718;2024-03-08T00:54:49;22.53;;;9.43;;
69323;SDS011;56470;47.350;8.718;2024-03-08T00:57:14;20.95;;;8.63;;
69323;SDS011;56470;47.350;8.718;2024-03-08T00:59:40;22.20;;;8.47;;
69323;SDS011;56470;47.350;8.718;2024-03-08T01:02:05;21.00;;;9.33;;
69323;SDS011;56470;47.350;8.718;2024-03-08T01:04:31;22.13;;;9.25;;
69323;SDS011;56470;47.350;8.718;2024-03-08T01:06:57;22.67;;;9.13;;
69323;SDS011;56470;47.350;8.718;2024-03-08T01:09:23;22.85;;;8.95;;
69323;SDS011;56470;47.350;8.718;2024-03-08T01:11:48;20.45;;;8.45;;
69323;SDS011;56470;47.350;8.718;2024-03-08T01:14:14;20.95;;;8.68;;
69323;SDS011;56470;47.350;8.718;2024-03-08T01:16:40;21.33;;;9.03;;
69323;SDS011;56470;47.350;8.718;2024-03-08T01:19:06;23.33;;;10.20;;
69323;SDS011;56470;47.350;8.718;2024-03-08T01:21:31;20.13;;;10.13;;
69323;SDS011;56470;47.350;8.718;2024-03-08T01:23:57;21.57;;;9.70;;
69323;SDS011;56470;47.350;8.718;2024-03-08T01:26:22;24.90;;;9.70;;
69323;SDS011;56470;47.350;8.718;2024-03-08T01:28:48;24.83;;;9.80;;
69323;SDS011;56470;47.350;8.718;2024-03-08T01:31:14;22.43;;;9.53;;
69323;SDS011;56470;47.350;8.718;2024-03-08T01:33:40;22.02;;;9.65;;
69323;SDS011;56470;47.350;8.718;2024-03-08T01:36:06;24.05;;;9.65;;
69323;SDS011;56470;47.350;8.718;2024-03-08T01:38:31;21.53;;;9.13;;
69323;SDS011;56470;47.350;8.718;2024-03-08T01:40:57;22.87;;;10.73;;
69323;SDS011;56470;47.350;8.718;2024-03-08T01:43:24;27.97;;;11.03;;
69323;SDS011;56470;47.350;8.718;2024-03-08T01:45:53;26.00;;;10.80;;
69323;SDS011;56470;47.350;8.718;2024-03-08T01:48:19;27.58;;;11.80;;
69323;SDS011;56470;47.350;8.718;2024-03-08T01:50:48;27.83;;;10.80;;
69323;SDS011;56470;47.350;8.718;2024-03-08T01:53:14;26.23;;;11.23;;
69323;SDS011;56470;47.350;8.718;2024-03-08T01:55:40;28.63;;;11.27;;
69323;SDS011;56470;47.350;8.718;2024-03-08T01:58:07;24.10;;;10.82;;
69323;SDS011;56470;47.350;8.718;2024-03-08T02:00:35;24.52;;;10.32;;
69323;SDS011;56470;47.350;8.718;2024-03-08T02:03:03;29.17;;;10.50;;
69323;SDS011;56470;47.350;8.718;2024-03-08T02:05:29;25.15;;;9.88;;
69323;SDS011;56470;47.350;8.718;2024-03-08T02:07:55;22.30;;;9.40;;
69323;SDS011;56470;47.350;8.718;2024-03-08T02:10:21;24.05;;;9.68;;
69323;SDS011;56470;47.350;8.718;2024-03-08T02:12:47;30.53;;;9.67;;
69323;SDS011;56470;47.350;8.718;2024-03-08T02:15:13;26.90;;;10.23;;
69323;SDS011;56470;47.350;8.718;2024-03-08T02:17:38;35.33;;;9.97;;
69323;SDS011;56470;47.350;8.718;2024-03-08T02:20:04;38.53;;;10.63;;
69323;SDS011;56470;47.350;8.718;2024-03-08T02:22:30;31.00;;;10.13;;
69323;SDS011;56470;47.350;8.718;2024-03-08T02:24:57;28.40;;;9.80;;
69323;SDS011;56470;47.350;8.718;2024-03-08T02:27:26;42.60;;;10.60;;
69323;SDS011;56470;47.350;8.718;2024-03-08T02:29:53;38.55;;;9.88;;
69323;SDS011;56470;47.350;8.718;2024-03-08T02:32:23;41.10;;;10.20;;
69323;SDS011;56470;47.350;8.718;2024-03-08T02:34:48;44.80;;;11.43;;
69323;SDS011;56470;47.350;8.718;2024-03-08T02:37:14;28.73;;;9.83;;
69323;SDS011;56470;47.350;8.718;2024-03-08T02:39:40;34.58;;;10.02;;
69323;SDS011;56470;47.350;8.718;2024-03-08T02:42:06;22.77;;;8.70;;
69323;SDS011;56470;47.350;8.718;2024-03-08T02:44:32;24.83;;;10.10;;
69323;SDS011;56470;47.350;8.718;2024-03-08T02:46:58;33.00;;;10.25;;
69323;SDS011;56470;47.350;8.718;2024-03-08T02:49:24;24.38;;;9.98;;
69323;SDS011;56470;47.350;8.718;2024-03-08T02:51:51;42.33;;;9.75;;
69323;SDS011;56470;47.350;8.718;2024-03-08T02:54:17;32.57;;;10.30;;
69323;SDS011;56470;47.350;8.718;2024-03-08T02:56:42;24.25;;;9.52;;
69323;SDS011;56470;47.350;8.718;2024-03-08T02:59:07;25.60;;;10.13;;
69323;SDS011;56470;47.350;8.718;2024-03-08T03:01:33;35.00;;;9.97;;
69323;SDS011;56470;47.350;8.718;2024-03-08T03:04:00;37.53;;;9.45;;
69323;SDS011;56470;47.350;8.718;2024-03-08T03:06:25;38.27;;;8.87;;
69323;SDS011;56470;47.350;8.718;2024-03-08T03:08:51;38.03;;;11.50;;
69323;SDS011;56470;47.350;8.718;2024-03-08T03:11:16;21.30;;;8.65;;
69323;SDS011;56470;47.350;8.718;2024-03-08T03:13:42;22.87;;;10.67;;
69323;SDS011;56470;47.350;8.718;2024-03-08T03:16:16;24.50;;;9.65;;
69323;SDS011;56470;47.350;8.718;2024-03-08T03:18:43;24.02;;;9.30;;
69323;SDS011;56470;47.350;8.718;2024-03-08T03:21:08;28.20;;;9.30;;
69323;SDS011;56470;47.350;8.718;2024-03-08T03:23:33;25.97;;;9.37;;
69323;SDS011;56470;47.350;8.718;2024-03-08T03:26:00;24.90;;;9.55;;
69323;SDS011;56470;47.350;8.718;2024-03-08T03:28:27;22.00;;;9.40;;
69323;SDS011;56470;47.350;8.718;2024-03-08T03:30:53;30.43;;;10.37;;
69323;SDS011;56470;47.350;8.718;2024-03-08T03:33:18;19.50;;;8.97;;
69323;SDS011;56470;47.350;8.718;2024-03-08T03:35:44;26.15;;;7.72;;
69323;SDS011;56470;47.350;8.718;2024-03-08T03:38:09;18.23;;;7.90;;
69323;SDS011;56470;47.350;8.718;2024-03-08T03:40:35;24.37;;;8.10;;
69323;SDS011;56470;47.350;8.718;2024-03-08T03:43:01;18.67;;;9.35;;
69323;SDS011;56470;47.350;8.718;2024-03-08T03:45:27;23.38;;;8.52;;
69323;SDS011;56470;47.350;8.718;2024-03-08T03:47:53;18.87;;;8.37;;
69323;SDS011;56470;47.350;8.718;2024-03-08T03:50:19;24.53;;;9.03;;
69323;SDS011;56470;47.350;8.718;2024-03-08T03:52:45;19.48;;;7.85;;
69323;SDS011;56470;47.350;8.718;2024-03-08T03:55:13;24.42;;;8.68;;
69323;SDS011;56470;47.350;8.718;2024-03-08T03:57:39;24.90;;;8.73;;
69323;SDS011;56470;47.350;8.718;2024-03-08T04:00:06;24.90;;;8.10;;
69323;SDS011;56470;47.350;8.718;2024-03-08T04:02:34;20.90;;;8.35;;
69323;SDS011;56470;47.350;8.718;2024-03-08T04:05:00;18.42;;;8.45;;
69323;SDS011;56470;47.350;8.718;2024-03-08T04:07:26;22.33;;;8.70;;
69323;SDS011;56470;47.350;8.718;2024-03-08T04:09:51;32.80;;;9.80;;
69323;SDS011;56470;47.350;8.718;2024-03-08T04:12:16;26.67;;;8.70;;
69323;SDS011;56470;47.350;8.718;2024-03-08T04:14:42;21.23;;;9.27;;
69323;SDS011;56470;47.350;8.718;2024-03-08T04:17:07;26.00;;;8.63;;
69323;SDS011;56470;47.350;8.718;2024-03-08T04:19:37;26.13;;;8.95;;
69323;SDS011;56470;47.350;8.718;2024-03-08T04:22:02;26.83;;;7.47;;
69323;SDS011;56470;47.350;8.718;2024-03-08T04:24:28;18.92;;;9.05;;
69323;SDS011;56470;47.350;8.718;2024-03-08T04:26:55;31.00;;;8.60;;
69323;SDS011;56470;47.350;8.718;2024-03-08T04:29:21;29.00;;;8.07;;
69323;SDS011;56470;47.350;8.718;2024-03-08T04:31:47;20.30;;;8.57;;
69323;SDS011;56470;47.350;8.718;2024-03-08T04:34:12;23.73;;;8.88;;
69323;SDS011;56470;47.350;8.718;2024-03-08T04:36:38;20.17;;;8.77;;
69323;SDS011;56470;47.350;8.718;2024-03-08T04:39:03;21.83;;;9.27;;
69323;SDS011;56470;47.350;8.718;2024-03-08T04:41:28;27.33;;;9.70;;
69323;SDS011;56470;47.350;8.718;2024-03-08T04:43:55;21.98;;;9.30;;
69323;SDS011;56470;47.350;8.718;2024-03-08T04:46:22;19.23;;;8.50;;
69323;SDS011;56470;47.350;8.718;2024-03-08T04:48:48;17.60;;;8.30;;
69323;SDS011;56470;47.350;8.718;2024-03-08T04:51:13;23.13;;;9.23;;
69323;SDS011;56470;47.350;8.718;2024-03-08T04:53:39;20.87;;;8.87;;
69323;SDS011;56470;47.350;8.718;2024-03-08T04:56:04;19.33;;;9.07;;
69323;SDS011;56470;47.350;8.718;2024-03-08T04:58:32;16.77;;;7.80;;
69323;SDS011;56470;47.350;8.718;2024-03-08T05:00:59;23.80;;;8.30;;
69323;SDS011;56470;47.350;8.718;2024-03-08T05:03:25;20.60;;;9.43;;
69323;SDS011;56470;47.350;8.718;2024-03-08T05:05:50;28.33;;;9.43;;
69323;SDS011;56470;47.350;8.718;2024-03-08T05:08:16;19.70;;;8.30;;
69323;SDS011;56470;47.350;8.718;2024-03-08T05:10:43;18.75;;;9.55;;
69323;SDS011;56470;47.350;8.718;2024-03-08T05:13:09;18.90;;;8.98;;
69323;SDS011;56470;47.350;8.718;2024-03-08T05:15:34;18.00;;;8.17;;
69323;SDS011;56470;47.350;8.718;2024-03-08T05:18:00;16.50;;;8.03;;
69323;SDS011;56470;47.350;8.718;2024-03-08T05:20:25;18.50;;;8.47;;
69323;SDS011;56470;47.350;8.718;2024-03-08T05:22:51;19.48;;;9.23;;
69323;SDS011;56470;47.350;8.718;2024-03-08T05:25:16;21.20;;;9.47;;
69323;SDS011;56470;47.350;8.718;2024-03-08T05:27:42;20.33;;;9.23;;
69323;SDS011;56470;47.350;8.718;2024-03-08T05:30:08;19.77;;;9.10;;
69323;SDS011;56470;47.350;8.718;2024-03-08T05:32:39;20.33;;;9.40;;
69323;SDS011;56470;47.350;8.718;2024-03-08T05:35:09;20.70;;;10.10;;
69323;SDS011;56470;47.350;8.718;2024-03-08T05:37:35;21.48;;;9.23;;
69323;SDS011;56470;47.350;8.718;2024-03-08T05:40:01;19.55;;;8.68;;
69323;SDS011;56470;47.350;8.718;2024-03-08T05:42:28;21.60;;;8.93;;
69323;SDS011;56470;47.350;8.718;2024-03-08T05:44:53;26.70;;;8.82;;
69323;SDS011;56470;47.350;8.718;2024-03-08T05:47:20;16.43;;;8.90;;
69323;SDS011;56470;47.350;8.718;2024-03-08T05:49:45;18.53;;;8.07;;
69323;SDS011;56470;47.350;8.718;2024-03-08T05:52:10;17.83;;;7.73;;
69323;SDS011;56470;47.350;8.718;2024-03-08T05:54:36;19.70;;;8.60;;
69323;SDS011;56470;47.350;8.718;2024-03-08T05:57:02;17.85;;;8.13;;
69323;SDS011;56470;47.350;8.718;2024-03-08T05:59:27;17.73;;;8.20;;
69323;SDS011;56470;47.350;8.718;2024-03-08T06:01:53;22.17;;;9.90;;
69323;SDS011;56470;47.350;8.718;2024-03-08T06:04:18;24.20;;;10.10;;
69323;SDS011;56470;47.350;8.718;2024-03-08T06:06:44;22.43;;;10.17;;
69323;SDS011;56470;47.350;8.718;2024-03-08T06:09:09;20.92;;;9.32;;
69323;SDS011;56470;47.350;8.718;2024-03-08T06:11:36;21.33;;;9.40;;
69323;SDS011;56470;47.350;8.718;2024-03-08T06:14:02;21.20;;;9.38;;
69323;SDS011;56470;47.350;8.718;2024-03-08T06:16:28;22.23;;;9.53;;
69323;SDS011;56470;47.350;8.718;2024-03-08T06:18:54;21.08;;;9.05;;
69323;SDS011;56470;47.350;8.718;2024-03-08T06:21:22;21.10;;;9.80;;
69323;SDS011;56470;47.350;8.718;2024-03-08T06:23:47;21.42;;;9.30;;
69323;SDS011;56470;47.350;8.718;2024-03-08T06:26:13;20.10;;;9.87;;
69323;SDS011;56470;47.350;8.718;2024-03-08T06:28:38;21.60;;;10.77;;
69323;SDS011;56470;47.350;8.718;2024-03-08T06:31:03;22.67;;;9.90;;
69323;SDS011;56470;47.350;8.718;2024-03-08T06:33:29;20.73;;;9.60;;
69323;SDS011;56470;47.350;8.718;2024-03-08T06:35:55;21.77;;;9.82;;
69323;SDS011;56470;47.350;8.718;2024-03-08T06:38:22;19.50;;;9.80;;
69323;SDS011;56470;47.350;8.718;2024-03-08T06:40:50;20.65;;;9.70;;
69323;SDS011;56470;47.350;8.718;2024-03-08T06:43:16;18.63;;;9.37;;
69323;SDS011;56470;47.350;8.718;2024-03-08T06:45:42;21.20;;;9.40;;
69323;SDS011;56470;47.350;8.718;2024-03-08T06:48:13;21.10;;;9.25;;
69323;SDS011;56470;47.350;8.718;2024-03-08T06:50:42;20.00;;;9.00;;
69323;SDS011;56470;47.350;8.718;2024-03-08T06:53:11;21.50;;;9.53;;
69323;SDS011;56470;47.350;8.718;2024-03-08T06:55:37;21.63;;;9.23;;
69323;SDS011;56470;47.350;8.718;2024-03-08T06:58:02;18.37;;;9.37;;
69323;SDS011;56470;47.350;8.718;2024-03-08T07:00:27;19.40;;;9.00;;
69323;SDS011;56470;47.350;8.718;2024-03-08T07:02:55;20.47;;;8.83;;
69323;SDS011;56470;47.350;8.718;2024-03-08T07:05:26;18.10;;;8.15;;
69323;SDS011;56470;47.350;8.718;2024-03-08T07:07:52;18.27;;;9.13;;
69323;SDS011;56470;47.350;8.718;2024-03-08T07:10:17;17.15;;;7.68;;
69323;SDS011;56470;47.350;8.718;2024-03-08T07:12:44;17.17;;;9.10;;
69323;SDS011;56470;47.350;8.718;2024-03-08T07:15:09;17.07;;;8.50;;
69323;SDS011;56470;47.350;8.718;2024-03-08T07:17:39;19.58;;;8.63;;
69323;SDS011;56470;47.350;8.718;2024-03-08T07:20:05;17.58;;;7.70;;
69323;SDS011;56470;47.350;8.718;2024-03-08T07:22:33;15.70;;;8.73;;
69323;SDS011;56470;47.350;8.718;2024-03-08T07:24:58;17.42;;;8.60;;
69323;SDS011;56470;47.350;8.718;2024-03-08T07:27:44;17.80;;;9.10;;
69323;SDS011;56470;47.350;8.718;2024-03-08T07:30:11;17.65;;;8.48;;
69323;SDS011;56470;47.350;8.718;2024-03-08T07:32:36;21.65;;;8.77;;
69323;SDS011;56470;47.350;8.718;2024-03-08T07:35:02;21.53;;;9.37;;
69323;SDS011;56470;47.350;8.718;2024-03-08T07:37:28;18.97;;;9.33;;
69323;SDS011;56470;47.350;8.718;2024-03-08T07:39:54;18.85;;;9.48;;
69323;SDS011;56470;47.350;8.718;2024-03-08T07:42:19;19.70;;;8.57;;
69323;SDS011;56470;47.350;8.718;2024-03-08T07:44:46;17.85;;;9.15;;
69323;SDS011;56470;47.350;8.718;2024-03-08T07:47:13;17.33;;;8.93;;
69323;SDS011;56470;47.350;8.718;2024-03-08T07:49:38;19.43;;;9.07;;
69323;SDS011;56470;47.350;8.718;2024-03-08T07:52:04;20.27;;;9.47;;
69323;SDS011;56470;47.350;8.718;2024-03-08T07:54:30;20.05;;;9.10;;
69323;SDS011;56470;47.350;8.718;2024-03-08T07:56:56;20.60;;;9.37;;
69323;SDS011;56470;47.350;8.718;2024-03-08T07:59:21;18.63;;;8.13;;
69323;SDS011;56470;47.350;8.718;2024-03-08T08:01:46;17.67;;;8.17;;
69323;SDS011;56470;47.350;8.718;2024-03-08T08:04:12;19.43;;;9.23;;
69323;SDS011;56470;47.350;8.718;2024-03-08T08:06:40;15.27;;;7.53;;
69323;SDS011;56470;47.350;8.718;2024-03-08T08:09:07;15.95;;;7.35;;
69323;SDS011;56470;47.350;8.718;2024-03-08T08:11:39;14.07;;;7.00;;
69323;SDS011;56470;47.350;8.718;2024-03-08T08:14:10;17.03;;;8.27;;
69323;SDS011;56470;47.350;8.718;2024-03-08T08:16:36;16.97;;;8.83;;
69323;SDS011;56470;47.350;8.718;2024-03-08T08:19:02;19.13;;;8.33;;
69323;SDS011;56470;47.350;8.718;2024-03-08T08:21:33;20.85;;;8.35;;
69323;SDS011;56470;47.350;8.718;2024-03-08T08:24:02;18.27;;;8.50;;
69323;SDS011;56470;47.350;8.718;2024-03-08T08:26:30;18.38;;;8.02;;
69323;SDS011;56470;47.350;8.718;2024-03-08T08:28:55;18.70;;;7.90;;
69323;SDS011;56470;47.350;8.718;2024-03-08T08:31:21;14.33;;;7.43;;
69323;SDS011;56470;47.350;8.718;2024-03-08T08:33:46;14.97;;;7.60;;
69323;SDS011;56470;47.350;8.718;2024-03-08T08:36:13;14.32;;;7.30;;
69323;SDS011;56470;47.350;8.718;2024-03-08T08:38:39;16.93;;;7.70;;
69323;SDS011;56470;47.350;8.718;2024-03-08T08:41:04;15.53;;;7.57;;
69323;SDS011;56470;47.350;8.718;2024-03-08T08:43:31;16.77;;;7.65;;
69323;SDS011;56470;47.350;8.718;2024-03-08T08:45:58;18.30;;;8.43;;
69323;SDS011;56470;47.350;8.718;2024-03-08T08:48:23;16.63;;;7.47;;
69323;SDS011;56470;47.350;8.718;2024-03-08T08:50:49;17.60;;;7.67;;
69323;SDS011;56470;47.350;8.718;2024-03-08T08:53:17;16.63;;;7.77;;
69323;SDS011;56470;47.350;8.718;2024-03-08T08:55:43;16.38;;;7.70;;
69323;SDS011;56470;47.350;8.718;2024-03-08T08:58:10;14.90;;;6.93;;
69323;SDS011;56470;47.350;8.718;2024-03-08T09:00:36;14.50;;;7.07;;
69323;SDS011;56470;47.350;8.718;2024-03-08T09:03:02;16.15;;;7.60;;
69323;SDS011;56470;47.350;8.718;2024-03-08T09:05:27;14.40;;;6.60;;
69323;SDS011;56470;47.350;8.718;2024-03-08T09:07:53;15.93;;;7.68;;
69323;SDS011;56470;47.350;8.718;2024-03-08T09:10:18;16.00;;;7.43;;
69323;SDS011;56470;47.350;8.718;2024-03-08T09:12:43;14.63;;;6.73;;
69323;SDS011;56470;47.350;8.718;2024-03-08T09:15:09;14.80;;;6.53;;
69323;SDS011;56470;47.350;8.718;2024-03-08T09:17:37;14.80;;;6.50;;
69323;SDS011;56470;47.350;8.718;2024-03-08T09:20:06;11.57;;;6.30;;
69323;SDS011;56470;47.350;8.718;2024-03-08T09:22:33;14.07;;;6.68;;
69323;SDS011;56470;47.350;8.718;2024-03-08T09:24:59;13.30;;;6.00;;
69323;SDS011;56470;47.350;8.718;2024-03-08T09:27:24;14.77;;;5.60;;
69323;SDS011;56470;47.350;8.718;2024-03-08T09:29:50;14.73;;;5.70;;
69323;SDS011;56470;47.350;8.718;2024-03-08T09:32:18;13.57;;;5.90;;
69323;SDS011;56470;47.350;8.718;2024-03-08T09:34:43;12.40;;;6.10;;
69323;SDS011;56470;47.350;8.718;2024-03-08T09:37:09;11.77;;;5.80;;
69323;SDS011;56470;47.350;8.718;2024-03-08T09:39:34;12.80;;;6.15;;
69323;SDS011;56470;47.350;8.718;2024-03-08T09:42:02;13.57;;;6.40;;
69323;SDS011;56470;47.350;8.718;2024-03-08T09:44:27;13.63;;;6.05;;
69323;SDS011;56470;47.350;8.718;2024-03-08T09:46:54;12.63;;;6.28;;
69323;SDS011;56470;47.350;8.718;2024-03-08T09:49:20;13.05;;;6.28;;
69323;SDS011;56470;47.350;8.718;2024-03-08T09:51:45;12.73;;;5.23;;
69323;SDS011;56470;47.350;8.718;2024-03-08T09:54:11;13.23;;;6.95;;
69323;SDS011;56470;47.350;8.718;2024-03-08T09:56:37;13.77;;;6.83;;
69323;SDS011;56470;47.350;8.718;2024-03-08T09:59:06;16.00;;;7.40;;
69323;SDS011;56470;47.350;8.718;2024-03-08T10:01:50;12.68;;;6.43;;
69323;SDS011;56470;47.350;8.718;2024-03-08T10:04:17;11.90;;;6.50;;
69323;SDS011;56470;47.350;8.718;2024-03-08T10:06:43;12.32;;;6.40;;
69323;SDS011;56470;47.350;8.718;2024-03-08T10:09:09;13.53;;;6.63;;
69323;SDS011;56470;47.350;8.718;2024-03-08T10:11:35;13.05;;;6.88;;
69323;SDS011;56470;47.350;8.718;2024-03-08T10:14:00;13.03;;;6.93;;
69323;SDS011;56470;47.350;8.718;2024-03-08T10:16:28;13.73;;;6.50;;
69323;SDS011;56470;47.350;8.718;2024-03-08T10:18:55;12.30;;;6.70;;
69323;SDS011;56470;47.350;8.718;2024-03-08T10:21:21;12.43;;;6.97;;
69323;SDS011;56470;47.350;8.718;2024-03-08T10:23:47;14.02;;;6.75;;
69323;SDS011;56470;47.350;8.718;2024-03-08T10:26:13;15.47;;;7.57;;
69323;SDS011;56470;47.350;8.718;2024-03-08T10:28:49;16.88;;;7.75;;
69323;SDS011;56470;47.350;8.718;2024-03-08T10:31:16;12.47;;;6.30;;
69323;SDS011;56470;47.350;8.718;2024-03-08T10:33:42;13.40;;;6.32;;
69323;SDS011;56470;47.350;8.718;2024-03-08T10:36:09;13.88;;;7.35;;
69323;SDS011;56470;47.350;8.718;2024-03-08T10:38:39;14.73;;;6.55;;
69323;SDS011;56470;47.350;8.718;2024-03-08T10:41:05;14.88;;;6.90;;
69323;SDS011;56470;47.350;8.718;2024-03-08T10:43:33;17.03;;;7.80;;
69323;SDS011;56470;47.350;8.718;2024-03-08T10:46:21;15.25;;;7.13;;
69323;SDS011;56470;47.350;8.718;2024-03-08T10:49:12;16.30;;;7.95;;
69323;SDS011;56470;47.350;8.718;2024-03-08T10:51:40;16.05;;;7.97;;
69323;SDS011;56470;47.350;8.718;2024-03-08T10:54:07;16.20;;;7.88;;
69323;SDS011;56470;47.350;8.718;2024-03-08T10:56:34;15.93;;;7.43;;
69323;SDS011;56470;47.350;8.718;2024-03-08T10:59:00;15.73;;;7.30;;
69323;SDS011;56470;47.350;8.718;2024-03-08T11:01:26;14.82;;;7.30;;
69323;SDS011;56470;47.350;8.718;2024-03-08T11:03:52;16.37;;;8.27;;
69323;SDS011;56470;47.350;8.718;2024-03-08T11:09:02;15.07;;;8.15;;
69323;SDS011;56470;47.350;8.718;2024-03-08T11:11:31;17.25;;;8.48;;
69323;SDS011;56470;47.350;8.718;2024-03-08T11:13:57;13.70;;;6.07;;
69323;SDS011;56470;47.350;8.718;2024-03-08T11:21:44;18.20;;;7.57;;
69323;SDS011;56470;47.350;8.718;2024-03-08T11:24:10;18.40;;;8.80;;
69323;SDS011;56470;47.350;8.718;2024-03-08T11:26:38;15.93;;;7.63;;
69323;SDS011;56470;47.350;8.718;2024-03-08T11:32:18;16.15;;;8.10;;
69323;SDS011;56470;47.350;8.718;2024-03-08T11:34:47;15.87;;;8.50;;
69323;SDS011;56470;47.350;8.718;2024-03-08T11:37:15;16.23;;;8.73;;
69323;SDS011;56470;47.350;8.718;2024-03-08T11:42:15;19.83;;;7.63;;
69323;SDS011;56470;47.350;8.718;2024-03-08T11:44:42;13.85;;;7.38;;
69323;SDS011;56470;47.350;8.718;2024-03-08T11:47:09;16.23;;;8.40;;
69323;SDS011;56470;47.350;8.718;2024-03-08T11:49:36;16.38;;;8.23;;
69323;SDS011;56470;47.350;8.718;2024-03-08T11:52:01;16.58;;;8.13;;
69323;SDS011;56470;47.350;8.718;2024-03-08T11:54:28;17.75;;;7.60;;
69323;SDS011;56470;47.350;8.718;2024-03-08T11:56:54;17.27;;;8.63;;
69323;SDS011;56470;47.350;8.718;2024-03-08T11:59:25;16.63;;;8.67;;
69323;SDS011;56470;47.350;8.718;2024-03-08T12:01:59;15.75;;;7.85;;
69323;SDS011;56470;47.350;8.718;2024-03-08T12:04:24;16.45;;;8.50;;
69323;SDS011;56470;47.350;8.718;2024-03-08T12:06:52;14.65;;;7.43;;
69323;SDS011;56470;47.350;8.718;2024-03-08T12:09:17;18.23;;;8.67;;
69323;SDS011;56470;47.350;8.718;2024-03-08T12:11:44;20.13;;;8.52;;
69323;SDS011;56470;47.350;8.718;2024-03-08T12:14:13;18.10;;;8.50;;
69323;SDS011;56470;47.350;8.718;2024-03-08T12:16:39;18.70;;;8.32;;
69323;SDS011;56470;47.350;8.718;2024-03-08T12:19:05;15.60;;;7.60;;
69323;SDS011;56470;47.350;8.718;2024-03-08T12:21:31;18.23;;;8.43;;
69323;SDS011;56470;47.350;8.718;2024-03-08T12:24:10;17.48;;;8.27;;
69323;SDS011;56470;47.350;8.718;2024-03-08T12:26:38;16.25;;;8.10;;
69323;SDS011;56470;47.350;8.718;2024-03-08T12:32:04;14.98;;;6.72;;
69323;SDS011;56470;47.350;8.718;2024-03-08T12:34:30;14.83;;;7.77;;
69323;SDS011;56470;47.350;8.718;2024-03-08T12:36:57;16.25;;;8.50;;
69323;SDS011;56470;47.350;8.718;2024-03-08T12:39:23;17.90;;;8.90;;
69323;SDS011;56470;47.350;8.718;2024-03-08T12:41:51;16.65;;;8.75;;
69323;SDS011;56470;47.350;8.718;2024-03-08T12:44:18;19.33;;;9.53;;
69323;SDS011;56470;47.350;8.718;2024-03-08T12:46:46;14.80;;;7.18;;
69323;SDS011;56470;47.350;8.718;2024-03-08T12:49:12;17.05;;;8.38;;
69323;SDS011;56470;47.350;8.718;2024-03-08T12:51:42;17.33;;;7.97;;
69323;SDS011;56470;47.350;8.718;2024-03-08T12:54:08;16.58;;;8.52;;
69323;SDS011;56470;47.350;8.718;2024-03-08T12:56:34;15.47;;;7.43;;
69323;SDS011;56470;47.350;8.718;2024-03-08T12:59:02;16.02;;;7.82;;
69323;SDS011;56470;47.350;8.718;2024-03-08T13:01:34;13.87;;;7.37;;
69323;SDS011;56470;47.350;8.718;2024-03-08T13:04:02;16.65;;;8.27;;
69323;SDS011;56470;47.350;8.718;2024-03-08T13:06:28;14.63;;;7.65;;
69323;SDS011;56470;47.350;8.718;2024-03-08T13:08:55;15.18;;;7.43;;
69323;SDS011;56470;47.350;8.718;2024-03-08T13:11:21;16.03;;;7.80;;
69323;SDS011;56470;47.350;8.718;2024-03-08T13:13:48;17.23;;;8.05;;
69323;SDS011;56470;47.350;8.718;2024-03-08T13:16:14;16.40;;;8.23;;
69323;SDS011;56470;47.350;8.718;2024-03-08T13:18:41;17.40;;;8.23;;
69323;SDS011;56470;47.350;8.718;2024-03-08T13:21:09;17.10;;;8.20;;
69323;SDS011;56470;47.350;8.718;2024-03-08T13:23:36;14.27;;;7.18;;
69323;SDS011;56470;47.350;8.718;2024-03-08T13:26:04;17.98;;;8.13;;
69323;SDS011;56470;47.350;8.718;2024-03-08T13:28:33;14.77;;;7.70;;
69323;SDS011;56470;47.350;8.718;2024-03-08T13:31:03;17.85;;;8.60;;
69323;SDS011;56470;47.350;8.718;2024-03-08T13:33:37;15.50;;;7.27;;
69323;SDS011;56470;47.350;8.718;2024-03-08T13:36:04;15.98;;;7.47;;
69323;SDS011;56470;47.350;8.718;2024-03-08T13:38:31;19.13;;;8.73;;
69323;SDS011;56470;47.350;8.718;2024-03-08T13:40:58;15.57;;;7.88;;
69323;SDS011;56470;47.350;8.718;2024-03-08T13:43:23;17.08;;;8.18;;
69323;SDS011;56470;47.350;8.718;2024-03-08T13:45:49;17.40;;;8.50;;
69323;SDS011;56470;47.350;8.718;2024-03-08T13:48:14;16.07;;;8.50;;
69323;SDS011;56470;47.350;8.718;2024-03-08T13:50:41;15.25;;;8.05;;
69323;SDS011;56470;47.350;8.718;2024-03-08T13:53:06;19.20;;;8.53;;
69323;SDS011;56470;47.350;8.718;2024-03-08T13:55:32;16.40;;;8.48;;
69323;SDS011;56470;47.350;8.718;2024-03-08T13:57:58;16.95;;;8.68;;
69323;SDS011;56470;47.350;8.718;2024-03-08T14:00:24;17.13;;;8.18;;
69323;SDS011;56470;47.350;8.718;2024-03-08T14:02:52;16.93;;;7.73;;
69323;SDS011;56470;47.350;8.718;2024-03-08T14:05:19;16.98;;;8.70;;
69323;SDS011;56470;47.350;8.718;2024-03-08T14:07:44;15.37;;;7.60;;
69323;SDS011;56470;47.350;8.718;2024-03-08T14:10:12;17.55;;;8.10;;
69323;SDS011;56470;47.350;8.718;2024-03-08T14:12:37;17.60;;;8.87;;
69323;SDS011;56470;47.350;8.718;2024-03-08T14:15:03;17.17;;;8.23;;
69323;SDS011;56470;47.350;8.718;2024-03-08T14:17:31;15.25;;;7.95;;
69323;SDS011;56470;47.350;8.718;2024-03-08T14:19:56;18.47;;;8.40;;
69323;SDS011;56470;47.350;8.718;2024-03-08T14:22:22;16.93;;;7.93;;
69323;SDS011;56470;47.350;8.718;2024-03-08T14:24:48;18.23;;;8.57;;
69323;SDS011;56470;47.350;8.718;2024-03-08T14:27:14;17.67;;;8.07;;
69323;SDS011;56470;47.350;8.718;2024-03-08T14:29:42;17.40;;;9.02;;
69323;SDS011;56470;47.350;8.718;2024-03-08T14:32:08;14.70;;;6.82;;
69323;SDS011;56470;47.350;8.718;2024-03-08T14:34:35;16.07;;;8.20;;
69323;SDS011;56470;47.350;8.718;2024-03-08T14:37:00;18.90;;;8.80;;
69323;SDS011;56470;47.350;8.718;2024-03-08T14:39:29;17.03;;;8.97;;
69323;SDS011;56470;47.350;8.718;2024-03-08T14:41:55;15.83;;;7.60;;
69323;SDS011;56470;47.350;8.718;2024-03-08T14:44:23;18.80;;;8.67;;
69323;SDS011;56470;47.350;8.718;2024-03-08T14:46:51;14.68;;;7.78;;